46.5°F
Current conditions from King Hill
Updated every 5 minutes
 
  Monday November 24, 2014

Station Historical Data
Daily Summary for June 10, 2012 Units:  Both    English   Metric
« Previous Day
Next Day »
Daily Weekly Monthly Yearly Custom
  High: Low: Average:
Temperature: 81.3 °F /  27.4 °C 48.1 °F /  8.9 °C 64.7 °F /  18.2 °C
Dew Point: 63.3 °F /  17.4 °C 46.5 °F /  8.1 °C 54.7 °F /  12.6 °C
Humidity: 96% 42% 73%
Wind Speed: 2.0mph /  3.2km/h - 1.3mph /  2.1km/h
Wind Gust: 7.0mph /  11.3km/h - -
Wind- - West
Pressure: 30.09 in /  1018.8 hPa 29.94 in /  1013.8 hPa -
Precipitation: 0.00 in /  0 mm    
Historical Graphs
 
 
Tabular Data for June 10, 2012
Time Temperature Dew Point Pressure Wind Wind Speed Wind Gust Humidity Daily Rainfall
00:04 50.5 °F /  10.3 °C 46.8 °F /  8.2 °C 29.94in /  1013.8hPa Calm     87% 0.00in /  0mm
00:09 50.4 °F /  10.2 °C 47.0 °F /  8.3 °C 29.94in /  1013.8hPa Calm     88% 0.00in /  0mm
00:14 50.3 °F /  10.2 °C 46.9 °F /  8.3 °C 29.94in /  1013.8hPa Calm   1.0mph /  1.6km/h 88% 0.00in /  0mm
00:24 50.4 °F /  10.2 °C 47.0 °F /  8.3 °C 29.94in /  1013.8hPa NE 1.0mph /  1.6km/h 2.0mph /  3.2km/h 88% 0.00in /  0mm
00:29 50.5 °F /  10.3 °C 47.4 °F /  8.6 °C 29.94in /  1013.8hPa Calm   2.0mph /  3.2km/h 89% 0.00in /  0mm
00:34 50.5 °F /  10.3 °C 47.4 °F /  8.6 °C 29.94in /  1013.8hPa Calm     89% 0.00in /  0mm
00:39 50.5 °F /  10.3 °C 47.4 °F /  8.6 °C 29.94in /  1013.8hPa Calm     89% 0.00in /  0mm
00:44 50.3 °F /  10.2 °C 47.2 °F /  8.4 °C 29.94in /  1013.8hPa Calm     89% 0.00in /  0mm
00:49 50.4 °F /  10.2 °C 47.3 °F /  8.5 °C 29.94in /  1013.8hPa Calm     89% 0.00in /  0mm
00:54 50.4 °F /  10.2 °C 47.3 °F /  8.5 °C 29.94in /  1013.8hPa Calm     89% 0.00in /  0mm
00:59 50.5 °F /  10.3 °C 47.4 °F /  8.6 °C 29.95in /  1014.1hPa Calm     89% 0.00in /  0mm
01:05 50.7 °F /  10.4 °C 47.9 °F /  8.8 °C 29.95in /  1014.1hPa Calm     90% 0.00in /  0mm
01:10 50.8 °F /  10.4 °C 48.0 °F /  8.9 °C 29.95in /  1014.1hPa Calm     90% 0.00in /  0mm
01:15 50.9 °F /  10.5 °C 48.1 °F /  8.9 °C 29.95in /  1014.1hPa Calm     90% 0.00in /  0mm
01:20 50.8 °F /  10.4 °C 48.0 °F /  8.9 °C 29.95in /  1014.1hPa Calm     90% 0.00in /  0mm
01:25 50.6 °F /  10.3 °C 47.8 °F /  8.8 °C 29.95in /  1014.1hPa Calm     90% 0.00in /  0mm
01:30 50.7 °F /  10.4 °C 47.9 °F /  8.8 °C 29.95in /  1014.1hPa Calm     90% 0.00in /  0mm
01:35 50.6 °F /  10.3 °C 47.8 °F /  8.8 °C 29.95in /  1014.1hPa Calm     90% 0.00in /  0mm
01:40 50.4 °F /  10.2 °C 47.6 °F /  8.7 °C 29.95in /  1014.1hPa Calm     90% 0.00in /  0mm
01:45 50.1 °F /  10.1 °C 47.3 °F /  8.5 °C 29.95in /  1014.1hPa Calm     90% 0.00in /  0mm
01:50 49.9 °F /  9.9 °C 47.1 °F /  8.4 °C 29.95in /  1014.1hPa Calm     90% 0.00in /  0mm
01:55 49.7 °F /  9.8 °C 46.9 °F /  8.3 °C 29.95in /  1014.1hPa Calm     90% 0.00in /  0mm
02:00 49.6 °F /  9.8 °C 46.8 °F /  8.2 °C 29.95in /  1014.1hPa Calm     90% 0.00in /  0mm
02:05 49.5 °F /  9.7 °C 46.7 °F /  8.2 °C 29.95in /  1014.1hPa Calm     90% 0.00in /  0mm
02:10 49.4 °F /  9.7 °C 46.6 °F /  8.1 °C 29.95in /  1014.1hPa Calm     90% 0.00in /  0mm
02:15 49.5 °F /  9.7 °C 47.0 °F /  8.3 °C 29.95in /  1014.1hPa Calm     91% 0.00in /  0mm
02:20 49.6 °F /  9.8 °C 47.1 °F /  8.4 °C 29.95in /  1014.1hPa Calm     91% 0.00in /  0mm
02:25 49.8 °F /  9.9 °C 47.6 °F /  8.7 °C 29.95in /  1014.1hPa Calm     92% 0.00in /  0mm
02:30 49.9 °F /  9.9 °C 47.7 °F /  8.7 °C 29.95in /  1014.1hPa Calm     92% 0.00in /  0mm
02:35 49.9 °F /  9.9 °C 47.7 °F /  8.7 °C 29.95in /  1014.1hPa Calm   1.0mph /  1.6km/h 92% 0.00in /  0mm
02:40 50.1 °F /  10.1 °C 47.9 °F /  8.8 °C 29.95in /  1014.1hPa Calm   1.0mph /  1.6km/h 92% 0.00in /  0mm
02:45 50.0 °F /  10 °C 47.8 °F /  8.8 °C 29.95in /  1014.1hPa Calm     92% 0.00in /  0mm
02:50 49.9 °F /  9.9 °C 47.7 °F /  8.7 °C 29.95in /  1014.1hPa Calm     92% 0.00in /  0mm
02:55 49.9 °F /  9.9 °C 47.7 °F /  8.7 °C 29.95in /  1014.1hPa Calm     92% 0.00in /  0mm
03:00 49.7 °F /  9.8 °C 47.5 °F /  8.6 °C 29.95in /  1014.1hPa Calm     92% 0.00in /  0mm
03:05 49.6 °F /  9.8 °C 47.4 °F /  8.6 °C 29.95in /  1014.1hPa Calm     92% 0.00in /  0mm
03:10 49.6 °F /  9.8 °C 47.7 °F /  8.7 °C 29.95in /  1014.1hPa Calm     93% 0.00in /  0mm
03:15 49.5 °F /  9.7 °C 47.6 °F /  8.7 °C 29.96in /  1014.4hPa Calm     93% 0.00in /  0mm
03:20 49.6 °F /  9.8 °C 47.7 °F /  8.7 °C 29.96in /  1014.4hPa Calm     93% 0.00in /  0mm
03:25 49.4 °F /  9.7 °C 47.5 °F /  8.6 °C 29.95in /  1014.1hPa Calm     93% 0.00in /  0mm
03:30 49.4 °F /  9.7 °C 47.5 °F /  8.6 °C 29.95in /  1014.1hPa Calm     93% 0.00in /  0mm
03:35 49.3 °F /  9.6 °C 47.4 °F /  8.6 °C 29.95in /  1014.1hPa Calm     93% 0.00in /  0mm
03:40 49.3 °F /  9.6 °C 47.4 °F /  8.6 °C 29.95in /  1014.1hPa Calm     93% 0.00in /  0mm
03:45 49.4 °F /  9.7 °C 47.5 °F /  8.6 °C 29.95in /  1014.1hPa Calm     93% 0.00in /  0mm
03:55 49.2 °F /  9.6 °C 47.3 °F /  8.5 °C 29.96in /  1014.4hPa Calm     93% 0.00in /  0mm
04:00 49.1 °F /  9.5 °C 47.4 °F /  8.6 °C 29.96in /  1014.4hPa Calm     94% 0.00in /  0mm
04:05 49.0 °F /  9.4 °C 47.3 °F /  8.5 °C 29.96in /  1014.4hPa Calm     94% 0.00in /  0mm
04:10 49.1 °F /  9.5 °C 47.4 °F /  8.6 °C 29.96in /  1014.4hPa Calm     94% 0.00in /  0mm
04:15 49.1 °F /  9.5 °C 47.4 °F /  8.6 °C 29.96in /  1014.4hPa Calm     94% 0.00in /  0mm
04:20 49.2 °F /  9.6 °C 47.5 °F /  8.6 °C 29.96in /  1014.4hPa Calm     94% 0.00in /  0mm
04:25 49.3 °F /  9.6 °C 47.6 °F /  8.7 °C 29.97in /  1014.8hPa Calm     94% 0.00in /  0mm
04:30 49.2 °F /  9.6 °C 47.5 °F /  8.6 °C 29.97in /  1014.8hPa Calm     94% 0.00in /  0mm
04:35 49.0 °F /  9.4 °C 47.3 °F /  8.5 °C 29.97in /  1014.8hPa Calm     94% 0.00in /  0mm
04:40 49.0 °F /  9.4 °C 47.3 °F /  8.5 °C 29.98in /  1015.1hPa Calm     94% 0.00in /  0mm
04:45 49.0 °F /  9.4 °C 47.3 °F /  8.5 °C 29.98in /  1015.1hPa Calm     94% 0.00in /  0mm
04:50 48.8 °F /  9.3 °C 47.2 °F /  8.4 °C 29.98in /  1015.1hPa Calm     94% 0.00in /  0mm
04:55 48.6 °F /  9.2 °C 47.0 °F /  8.3 °C 29.98in /  1015.1hPa Calm     94% 0.00in /  0mm
05:00 48.4 °F /  9.1 °C 46.8 °F /  8.2 °C 29.98in /  1015.1hPa Calm     94% 0.00in /  0mm
05:05 48.3 °F /  9.1 °C 46.7 °F /  8.2 °C 29.98in /  1015.1hPa Calm     94% 0.00in /  0mm
05:10 48.2 °F /  9 °C 46.6 °F /  8.1 °C 29.98in /  1015.1hPa Calm     94% 0.00in /  0mm
05:15 48.1 °F /  8.9 °C 46.5 °F /  8.1 °C 29.99in /  1015.5hPa Calm     94% 0.00in /  0mm
05:20 48.1 °F /  8.9 °C 46.5 °F /  8.1 °C 29.99in /  1015.5hPa Calm     94% 0.00in /  0mm
05:25 48.1 °F /  8.9 °C 46.5 °F /  8.1 °C 29.99in /  1015.5hPa Calm     94% 0.00in /  0mm
05:30 48.2 °F /  9 °C 46.8 °F /  8.2 °C 29.99in /  1015.5hPa Calm     95% 0.00in /  0mm
05:35 48.2 °F /  9 °C 46.8 °F /  8.2 °C 29.99in /  1015.5hPa Calm     95% 0.00in /  0mm
05:40 48.3 °F /  9.1 °C 46.9 °F /  8.3 °C 29.99in /  1015.5hPa Calm     95% 0.00in /  0mm
05:45 48.4 °F /  9.1 °C 47.0 °F /  8.3 °C 29.99in /  1015.5hPa Calm     95% 0.00in /  0mm
05:50 48.4 °F /  9.1 °C 47.0 °F /  8.3 °C 30.00in /  1015.8hPa Calm     95% 0.00in /  0mm
05:55 48.5 °F /  9.2 °C 47.1 °F /  8.4 °C 30.00in /  1015.8hPa Calm     95% 0.00in /  0mm
06:00 48.7 °F /  9.3 °C 47.3 °F /  8.5 °C 30.00in /  1015.8hPa Calm     95% 0.00in /  0mm
06:10 49.0 °F /  9.4 °C 47.6 °F /  8.7 °C 30.00in /  1015.8hPa Calm     95% 0.00in /  0mm
06:15 49.2 °F /  9.6 °C 47.8 °F /  8.8 °C 30.00in /  1015.8hPa Calm     95% 0.00in /  0mm
06:20 49.4 °F /  9.7 °C 48.0 °F /  8.9 °C 30.00in /  1015.8hPa Calm     95% 0.00in /  0mm
06:25 49.8 °F /  9.9 °C 48.4 °F /  9.1 °C 30.01in /  1016.1hPa Calm     95% 0.00in /  0mm
06:30 50.0 °F /  10 °C 48.6 °F /  9.2 °C 30.01in /  1016.1hPa Calm     95% 0.00in /  0mm
06:39 50.7 °F /  10.4 °C 49.3 °F /  9.6 °C 30.02in /  1016.5hPa Calm     95% 0.00in /  0mm
06:45 51.0 °F /  10.6 °C 49.9 °F /  9.9 °C 30.02in /  1016.5hPa Calm     96% 0.00in /  0mm
06:50 51.4 °F /  10.8 °C 50.0 °F /  10 °C 30.02in /  1016.5hPa Calm     95% 0.00in /  0mm
06:55 51.7 °F /  10.9 °C 50.6 °F /  10.3 °C 30.02in /  1016.5hPa Calm     96% 0.00in /  0mm
07:00 52.1 °F /  11.2 °C 51.0 °F /  10.6 °C 30.02in /  1016.5hPa Calm     96% 0.00in /  0mm
07:05 52.5 °F /  11.4 °C 51.4 °F /  10.8 °C 30.03in /  1016.8hPa Calm     96% 0.00in /  0mm
07:10 52.9 °F /  11.6 °C 51.8 °F /  11 °C 30.03in /  1016.8hPa Calm     96% 0.00in /  0mm
07:15 53.2 °F /  11.8 °C 52.1 °F /  11.2 °C 30.03in /  1016.8hPa Calm     96% 0.00in /  0mm
07:20 53.6 °F /  12 °C 52.5 °F /  11.4 °C 30.03in /  1016.8hPa Calm     96% 0.00in /  0mm
07:25 54.1 °F /  12.3 °C 53.0 °F /  11.7 °C 30.03in /  1016.8hPa Calm     96% 0.00in /  0mm
07:30 54.6 °F /  12.6 °C 53.5 °F /  11.9 °C 30.03in /  1016.8hPa Calm     96% 0.00in /  0mm
07:35 55.1 °F /  12.8 °C 54.0 °F /  12.2 °C 30.04in /  1017.2hPa Calm     96% 0.00in /  0mm
07:40 55.6 °F /  13.1 °C 54.5 °F /  12.5 °C 30.04in /  1017.2hPa Calm     96% 0.00in /  0mm
07:45 56.0 °F /  13.3 °C 54.9 °F /  12.7 °C 30.04in /  1017.2hPa Calm     96% 0.00in /  0mm
07:50 56.6 °F /  13.7 °C 55.5 °F /  13.1 °C 30.04in /  1017.2hPa Calm     96% 0.00in /  0mm
07:55 57.4 °F /  14.1 °C 56.3 °F /  13.5 °C 30.04in /  1017.2hPa Calm     96% 0.00in /  0mm
08:00 58.6 °F /  14.8 °C 57.5 °F /  14.2 °C 30.05in /  1017.5hPa Calm     96% 0.00in /  0mm
08:05 59.4 °F /  15.2 °C 58.3 °F /  14.6 °C 30.05in /  1017.5hPa Calm     96% 0.00in /  0mm
08:10 60.6 °F /  15.9 °C 59.5 °F /  15.3 °C 30.05in /  1017.5hPa Calm     96% 0.00in /  0mm
08:15 61.6 °F /  16.4 °C 59.9 °F /  15.5 °C 30.05in /  1017.5hPa Calm     94% 0.00in /  0mm
08:20 62.7 °F /  17.1 °C 59.4 °F /  15.2 °C 30.05in /  1017.5hPa Calm     89% 0.00in /  0mm
08:25 64.2 °F /  17.9 °C 59.9 °F /  15.5 °C 30.05in /  1017.5hPa Calm     86% 0.00in /  0mm
08:30 65.5 °F /  18.6 °C 59.9 °F /  15.5 °C 30.05in /  1017.5hPa Calm     82% 0.00in /  0mm
08:35 66.8 °F /  19.3 °C 59.7 °F /  15.4 °C 30.05in /  1017.5hPa Calm     78% 0.00in /  0mm
08:40 68.1 °F /  20.1 °C 61.3 °F /  16.3 °C 30.05in /  1017.5hPa Calm     79% 0.00in /  0mm
08:44 68.9 °F /  20.5 °C 59.9 °F /  15.5 °C 30.05in /  1017.5hPa Calm     73% 0.00in /  0mm
08:50 69.5 °F /  20.8 °C 58.5 °F /  14.7 °C 30.05in /  1017.5hPa Calm     68% 0.00in /  0mm
08:55 69.5 °F /  20.8 °C 58.9 °F /  14.9 °C 30.05in /  1017.5hPa Calm     69% 0.00in /  0mm
09:00 69.9 °F /  21.1 °C 58.5 °F /  14.7 °C 30.05in /  1017.5hPa Calm     67% 0.00in /  0mm
09:04 70.6 °F /  21.4 °C 59.9 °F /  15.5 °C 30.06in /  1017.8hPa Calm     69% 0.00in /  0mm
09:10 71.2 °F /  21.8 °C 56.6 °F /  13.7 °C 30.06in /  1017.8hPa Calm     60% 0.00in /  0mm
09:15 71.8 °F /  22.1 °C 58.1 °F /  14.5 °C 30.06in /  1017.8hPa Calm     62% 0.00in /  0mm
09:20 71.7 °F /  22.1 °C 56.6 °F /  13.7 °C 30.06in /  1017.8hPa Calm     59% 0.00in /  0mm
09:25 71.7 °F /  22.1 °C 59.3 °F /  15.2 °C 30.06in /  1017.8hPa Calm     65% 0.00in /  0mm
09:30 72.2 °F /  22.3 °C 59.8 °F /  15.4 °C 30.06in /  1017.8hPa Calm     65% 0.00in /  0mm
09:35 72.8 °F /  22.7 °C 59.5 °F /  15.3 °C 30.06in /  1017.8hPa Calm     63% 0.00in /  0mm
09:40 72.5 °F /  22.5 °C 58.3 °F /  14.6 °C 30.05in /  1017.5hPa Calm     61% 0.00in /  0mm
09:45 72.0 °F /  22.2 °C 57.8 °F /  14.3 °C 30.05in /  1017.5hPa Calm     61% 0.00in /  0mm
09:49 72.5 °F /  22.5 °C 57.4 °F /  14.1 °C 30.06in /  1017.8hPa Calm     59% 0.00in /  0mm
09:55 72.8 °F /  22.7 °C 58.6 °F /  14.8 °C 30.06in /  1017.8hPa Calm     61% 0.00in /  0mm
10:00 73.1 °F /  22.8 °C 59.8 °F /  15.4 °C 30.05in /  1017.5hPa Calm   1.0mph /  1.6km/h 63% 0.00in /  0mm
10:04 73.1 °F /  22.8 °C 61.1 °F /  16.2 °C 30.05in /  1017.5hPa Calm   1.0mph /  1.6km/h 66% 0.00in /  0mm
10:10 73.3 °F /  22.9 °C 58.1 °F /  14.5 °C 30.05in /  1017.5hPa Calm     59% 0.00in /  0mm
10:15 73.2 °F /  22.9 °C 58.5 °F /  14.7 °C 30.06in /  1017.8hPa Calm     60% 0.00in /  0mm
10:19 73.7 °F /  23.2 °C 59.0 °F /  15 °C 30.06in /  1017.8hPa Calm     60% 0.00in /  0mm
10:25 74.0 °F /  23.3 °C 57.8 °F /  14.3 °C 30.06in /  1017.8hPa Calm     57% 0.00in /  0mm
10:30 74.1 °F /  23.4 °C 58.9 °F /  14.9 °C 30.06in /  1017.8hPa Calm     59% 0.00in /  0mm
10:35 74.6 °F /  23.7 °C 61.6 °F /  16.4 °C 30.05in /  1017.5hPa Calm   2.0mph /  3.2km/h 64% 0.00in /  0mm
10:39 74.9 °F /  23.8 °C 59.6 °F /  15.3 °C 30.05in /  1017.5hPa Calm   2.0mph /  3.2km/h 59% 0.00in /  0mm
10:45 74.2 °F /  23.4 °C 58.0 °F /  14.4 °C 30.05in /  1017.5hPa Calm   4.0mph /  6.4km/h 57% 0.00in /  0mm
10:49 74.1 °F /  23.4 °C 59.3 °F /  15.2 °C 30.05in /  1017.5hPa Calm   4.0mph /  6.4km/h 60% 0.00in /  0mm
10:55 74.3 °F /  23.5 °C 61.8 °F /  16.6 °C 30.05in /  1017.5hPa Calm   1.0mph /  1.6km/h 65% 0.00in /  0mm
11:00 74.6 °F /  23.7 °C 59.3 °F /  15.2 °C 30.05in /  1017.5hPa Calm     59% 0.00in /  0mm
11:04 74.7 °F /  23.7 °C 59.9 °F /  15.5 °C 30.05in /  1017.5hPa WNW 1.0mph /  1.6km/h 5.0mph /  8km/h 60% 0.00in /  0mm
11:09 74.6 °F /  23.7 °C 58.9 °F /  14.9 °C 30.05in /  1017.5hPa NW 1.0mph /  1.6km/h 6.0mph /  9.7km/h 58% 0.00in /  0mm
11:15 74.5 °F /  23.6 °C 57.3 °F /  14.1 °C 30.05in /  1017.5hPa Calm   6.0mph /  9.7km/h 55% 0.00in /  0mm
11:19 74.5 °F /  23.6 °C 59.7 °F /  15.4 °C 30.05in /  1017.5hPa Calm     60% 0.00in /  0mm
11:25 73.9 °F /  23.3 °C 59.2 °F /  15.1 °C 30.05in /  1017.5hPa Calm     60% 0.00in /  0mm
11:30 73.4 °F /  23 °C 57.7 °F /  14.3 °C 30.05in /  1017.5hPa Calm     58% 0.00in /  0mm
11:34 72.9 °F /  22.7 °C 57.3 °F /  14.1 °C 30.05in /  1017.5hPa Calm     58% 0.00in /  0mm
11:40 72.7 °F /  22.6 °C 58.9 °F /  14.9 °C 30.05in /  1017.5hPa Calm     62% 0.00in /  0mm
11:45 72.6 °F /  22.6 °C 57.9 °F /  14.4 °C 30.05in /  1017.5hPa Calm     60% 0.00in /  0mm
11:50 73.5 °F /  23.1 °C 59.7 °F /  15.4 °C 30.04in /  1017.2hPa Calm     62% 0.00in /  0mm
12:00 74.9 °F /  23.8 °C 57.7 °F /  14.3 °C 30.04in /  1017.2hPa Calm   1.0mph /  1.6km/h 55% 0.00in /  0mm
12:05 74.6 °F /  23.7 °C 58.4 °F /  14.7 °C 30.04in /  1017.2hPa Calm     57% 0.00in /  0mm
12:09 73.9 °F /  23.3 °C 53.6 °F /  12 °C 30.04in /  1017.2hPa Calm     49% 0.00in /  0mm
12:15 74.3 °F /  23.5 °C 58.6 °F /  14.8 °C 30.04in /  1017.2hPa Calm     58% 0.00in /  0mm
12:20 74.3 °F /  23.5 °C 59.1 °F /  15.1 °C 30.04in /  1017.2hPa Calm     59% 0.00in /  0mm
12:25 73.4 °F /  23 °C 58.2 °F /  14.6 °C 30.05in /  1017.5hPa Calm   1.0mph /  1.6km/h 59% 0.00in /  0mm
12:30 73.6 °F /  23.1 °C 56.5 °F /  13.6 °C 30.05in /  1017.5hPa Calm   1.0mph /  1.6km/h 55% 0.00in /  0mm
12:34 74.7 °F /  23.7 °C 57.5 °F /  14.2 °C 30.05in /  1017.5hPa Calm   3.0mph /  4.8km/h 55% 0.00in /  0mm
12:40 75.8 °F /  24.3 °C 59.5 °F /  15.3 °C 30.05in /  1017.5hPa Calm   3.0mph /  4.8km/h 57% 0.00in /  0mm
12:44 76.2 °F /  24.6 °C 58.9 °F /  14.9 °C 30.05in /  1017.5hPa Calm   1.0mph /  1.6km/h 55% 0.00in /  0mm
12:50 76.4 °F /  24.7 °C 58.0 °F /  14.4 °C 30.05in /  1017.5hPa Calm   1.0mph /  1.6km/h 53% 0.00in /  0mm
12:54 75.9 °F /  24.4 °C 58.1 °F /  14.5 °C 30.04in /  1017.2hPa Calm     54% 0.00in /  0mm
12:59 75.7 °F /  24.3 °C 56.9 °F /  13.8 °C 30.04in /  1017.2hPa Calm     52% 0.00in /  0mm
13:05 76.1 °F /  24.5 °C 57.2 °F /  14 °C 30.04in /  1017.2hPa Calm   1.0mph /  1.6km/h 52% 0.00in /  0mm
13:14 76.0 °F /  24.4 °C 59.7 °F /  15.4 °C 30.04in /  1017.2hPa Calm     57% 0.00in /  0mm
13:20 75.5 °F /  24.2 °C 58.7 °F /  14.8 °C 30.04in /  1017.2hPa Calm     56% 0.00in /  0mm
13:25 75.2 °F /  24 °C 59.9 °F /  15.5 °C 30.04in /  1017.2hPa Calm     59% 0.00in /  0mm
13:34 74.8 °F /  23.8 °C 60.5 °F /  15.8 °C 30.04in /  1017.2hPa Calm     61% 0.00in /  0mm
13:40 74.5 °F /  23.6 °C 62.4 °F /  16.9 °C 30.04in /  1017.2hPa Calm     66% 0.00in /  0mm
13:44 75.1 °F /  23.9 °C 58.4 °F /  14.7 °C 30.04in /  1017.2hPa Calm     56% 0.00in /  0mm
13:49 75.9 °F /  24.4 °C 57.6 °F /  14.2 °C 30.04in /  1017.2hPa Calm   2.0mph /  3.2km/h 53% 0.00in /  0mm
13:55 76.7 °F /  24.8 °C 58.3 °F /  14.6 °C 30.04in /  1017.2hPa Calm   2.0mph /  3.2km/h 53% 0.00in /  0mm
13:59 76.8 °F /  24.9 °C 56.8 °F /  13.8 °C 30.04in /  1017.2hPa Calm   1.0mph /  1.6km/h 50% 0.00in /  0mm
14:04 76.5 °F /  24.7 °C 53.6 °F /  12 °C 30.04in /  1017.2hPa Calm     45% 0.00in /  0mm
14:10 76.0 °F /  24.4 °C 58.7 °F /  14.8 °C 30.04in /  1017.2hPa Calm     55% 0.00in /  0mm
14:14 75.7 °F /  24.3 °C 60.8 °F /  16 °C 30.04in /  1017.2hPa Calm     60% 0.00in /  0mm
14:20 75.4 °F /  24.1 °C 61.0 °F /  16.1 °C 30.04in /  1017.2hPa Calm     61% 0.00in /  0mm
14:25 74.9 °F /  23.8 °C 62.4 °F /  16.9 °C 30.04in /  1017.2hPa Calm     65% 0.00in /  0mm
14:29 74.1 °F /  23.4 °C 62.0 °F /  16.7 °C 30.04in /  1017.2hPa Calm     66% 0.00in /  0mm
14:34 73.5 °F /  23.1 °C 61.0 °F /  16.1 °C 30.04in /  1017.2hPa Calm     65% 0.00in /  0mm
14:40 73.3 °F /  22.9 °C 61.7 °F /  16.5 °C 30.04in /  1017.2hPa Calm     67% 0.00in /  0mm
14:45 73.4 °F /  23 °C 60.5 °F /  15.8 °C 30.04in /  1017.2hPa Calm     64% 0.00in /  0mm
14:49 73.6 °F /  23.1 °C 57.0 °F /  13.9 °C 30.04in /  1017.2hPa Calm     56% 0.00in /  0mm
14:55 74.0 °F /  23.3 °C 59.3 °F /  15.2 °C 30.04in /  1017.2hPa Calm     60% 0.00in /  0mm
14:59 74.3 °F /  23.5 °C 60.9 °F /  16.1 °C 30.04in /  1017.2hPa Calm     63% 0.00in /  0mm
15:05 74.3 °F /  23.5 °C 62.2 °F /  16.8 °C 30.04in /  1017.2hPa Calm     66% 0.00in /  0mm
15:09 74.5 °F /  23.6 °C 63.3 °F /  17.4 °C 30.04in /  1017.2hPa Calm     68% 0.00in /  0mm
15:14 75.6 °F /  24.2 °C 58.8 °F /  14.9 °C 30.05in /  1017.5hPa Calm     56% 0.00in /  0mm
15:20 76.6 °F /  24.8 °C 58.2 °F /  14.6 °C 30.05in /  1017.5hPa Calm     53% 0.00in /  0mm
15:25 77.5 °F /  25.3 °C 56.3 °F /  13.5 °C 30.05in /  1017.5hPa NW 1.0mph /  1.6km/h 4.0mph /  6.4km/h 48% 0.00in /  0mm
15:29 77.9 °F /  25.5 °C 57.8 °F /  14.3 °C 30.04in /  1017.2hPa Calm   4.0mph /  6.4km/h 50% 0.00in /  0mm
15:35 78.6 °F /  25.9 °C 59.5 °F /  15.3 °C 30.05in /  1017.5hPa Calm   4.0mph /  6.4km/h 52% 0.00in /  0mm
15:40 79.3 °F /  26.3 °C 57.4 °F /  14.1 °C 30.05in /  1017.5hPa Calm     47% 0.00in /  0mm
15:44 79.3 °F /  26.3 °C 56.8 °F /  13.8 °C 30.05in /  1017.5hPa WNW 2.0mph /  3.2km/h 7.0mph /  11.3km/h 46% 0.00in /  0mm
15:50 79.3 °F /  26.3 °C 61.8 °F /  16.6 °C 30.05in /  1017.5hPa WNW 2.0mph /  3.2km/h 7.0mph /  11.3km/h 55% 0.00in /  0mm
15:54 78.8 °F /  26 °C 60.2 °F /  15.7 °C 30.05in /  1017.5hPa Calm   6.0mph /  9.7km/h 53% 0.00in /  0mm
16:00 78.8 °F /  26 °C 59.7 °F /  15.4 °C 30.05in /  1017.5hPa Calm   3.0mph /  4.8km/h 52% 0.00in /  0mm
16:04 78.9 °F /  26.1 °C 59.8 °F /  15.4 °C 30.05in /  1017.5hPa Calm   4.0mph /  6.4km/h 52% 0.00in /  0mm
16:09 79.3 °F /  26.3 °C 61.2 °F /  16.2 °C 30.05in /  1017.5hPa Calm   4.0mph /  6.4km/h 54% 0.00in /  0mm
16:15 79.5 °F /  26.4 °C 56.9 °F /  13.8 °C 30.05in /  1017.5hPa Calm   3.0mph /  4.8km/h 46% 0.00in /  0mm
16:24 79.6 °F /  26.4 °C 59.9 °F /  15.5 °C 30.05in /  1017.5hPa Calm   1.0mph /  1.6km/h 51% 0.00in /  0mm
16:30 79.6 °F /  26.4 °C 59.9 °F /  15.5 °C 30.05in /  1017.5hPa Calm   1.0mph /  1.6km/h 51% 0.00in /  0mm
16:34 79.8 °F /  26.6 °C 58.4 °F /  14.7 °C 30.05in /  1017.5hPa Calm     48% 0.00in /  0mm
16:39 80.2 °F /  26.8 °C 61.0 °F /  16.1 °C 30.04in /  1017.2hPa Calm     52% 0.00in /  0mm
16:45 80.2 °F /  26.8 °C 58.8 °F /  14.9 °C 30.05in /  1017.5hPa Calm     48% 0.00in /  0mm
16:49 80.2 °F /  26.8 °C 56.3 °F /  13.5 °C 30.04in /  1017.2hPa Calm     44% 0.00in /  0mm
16:54 80.8 °F /  27.1 °C 57.5 °F /  14.2 °C 30.04in /  1017.2hPa Calm     45% 0.00in /  0mm
16:59 81.3 °F /  27.4 °C 59.2 °F /  15.1 °C 30.05in /  1017.5hPa Calm     47% 0.00in /  0mm
17:05 80.9 °F /  27.2 °C 57.0 °F /  13.9 °C 30.05in /  1017.5hPa Calm     44% 0.00in /  0mm
17:09 80.6 °F /  27 °C 56.7 °F /  13.7 °C 30.05in /  1017.5hPa Calm     44% 0.00in /  0mm
17:14 80.8 °F /  27.1 °C 56.9 °F /  13.8 °C 30.05in /  1017.5hPa Calm     44% 0.00in /  0mm
17:20 80.5 °F /  26.9 °C 56.6 °F /  13.7 °C 30.04in /  1017.2hPa Calm     44% 0.00in /  0mm
17:25 80.5 °F /  26.9 °C 58.4 °F /  14.7 °C 30.05in /  1017.5hPa Calm     47% 0.00in /  0mm
17:29 80.5 °F /  26.9 °C 56.0 °F /  13.3 °C 30.05in /  1017.5hPa Calm     43% 0.00in /  0mm
17:35 80.4 °F /  26.9 °C 56.5 °F /  13.6 °C 30.05in /  1017.5hPa Calm     44% 0.00in /  0mm
17:39 80.8 °F /  27.1 °C 58.1 °F /  14.5 °C 30.05in /  1017.5hPa Calm     46% 0.00in /  0mm
17:44 80.5 °F /  26.9 °C 56.6 °F /  13.7 °C 30.05in /  1017.5hPa Calm   1.0mph /  1.6km/h 44% 0.00in /  0mm
17:50 80.2 °F /  26.8 °C 56.3 °F /  13.5 °C 30.05in /  1017.5hPa Calm   1.0mph /  1.6km/h 44% 0.00in /  0mm
17:54 80.3 °F /  26.8 °C 57.7 °F /  14.3 °C 30.05in /  1017.5hPa Calm     46% 0.00in /  0mm
17:59 80.2 °F /  26.8 °C 57.0 °F /  13.9 °C 30.05in /  1017.5hPa Calm     45% 0.00in /  0mm
18:05 80.1 °F /  26.7 °C 58.1 °F /  14.5 °C 30.05in /  1017.5hPa Calm     47% 0.00in /  0mm
18:09 80.2 °F /  26.8 °C 55.7 °F /  13.2 °C 30.05in /  1017.5hPa Calm     43% 0.00in /  0mm
18:14 80.2 °F /  26.8 °C 59.9 °F /  15.5 °C 30.05in /  1017.5hPa Calm     50% 0.00in /  0mm
18:19 80.2 °F /  26.8 °C 57.6 °F /  14.2 °C 30.05in /  1017.5hPa Calm     46% 0.00in /  0mm
18:25 80.3 °F /  26.8 °C 55.1 °F /  12.8 °C 30.05in /  1017.5hPa Calm     42% 0.00in /  0mm
18:29 80.5 °F /  26.9 °C 56.6 °F /  13.7 °C 30.05in /  1017.5hPa Calm     44% 0.00in /  0mm
18:34 80.2 °F /  26.8 °C 57.0 °F /  13.9 °C 30.04in /  1017.2hPa Calm     45% 0.00in /  0mm
18:40 79.8 °F /  26.6 °C 60.6 °F /  15.9 °C 30.04in /  1017.2hPa Calm     52% 0.00in /  0mm
18:44 79.0 °F /  26.1 °C 59.4 °F /  15.2 °C 30.04in /  1017.2hPa Calm     51% 0.00in /  0mm
18:49 78.7 °F /  25.9 °C 60.7 °F /  15.9 °C 30.04in /  1017.2hPa Calm     54% 0.00in /  0mm
18:54 78.2 °F /  25.7 °C 59.2 °F /  15.1 °C 30.04in /  1017.2hPa Calm     52% 0.00in /  0mm
18:59 77.9 °F /  25.5 °C 59.4 °F /  15.2 °C 30.04in /  1017.2hPa Calm     53% 0.00in /  0mm
19:04 77.8 °F /  25.4 °C 60.4 °F /  15.8 °C 30.04in /  1017.2hPa Calm     55% 0.00in /  0mm
19:10 77.5 °F /  25.3 °C 61.6 °F /  16.4 °C 30.04in /  1017.2hPa Calm     58% 0.00in /  0mm
19:14 77.3 °F /  25.2 °C 61.9 °F /  16.6 °C 30.05in /  1017.5hPa Calm     59% 0.00in /  0mm
19:19 76.5 °F /  24.7 °C 61.1 °F /  16.2 °C 30.05in /  1017.5hPa Calm     59% 0.00in /  0mm
19:24 75.9 °F /  24.4 °C 62.4 °F /  16.9 °C 30.04in /  1017.2hPa Calm     63% 0.00in /  0mm
19:29 75.4 °F /  24.1 °C 62.8 °F /  17.1 °C 30.05in /  1017.5hPa Calm     65% 0.00in /  0mm
19:34 75.2 °F /  24 °C 59.9 °F /  15.5 °C 30.04in /  1017.2hPa Calm     59% 0.00in /  0mm
19:39 74.8 °F /  23.8 °C 59.1 °F /  15.1 °C 30.05in /  1017.5hPa Calm     58% 0.00in /  0mm
19:44 74.4 °F /  23.6 °C 58.7 °F /  14.8 °C 30.05in /  1017.5hPa Calm     58% 0.00in /  0mm
19:49 73.7 °F /  23.2 °C 59.4 °F /  15.2 °C 30.05in /  1017.5hPa Calm     61% 0.00in /  0mm
19:54 73.0 °F /  22.8 °C 59.7 °F /  15.4 °C 30.05in /  1017.5hPa Calm     63% 0.00in /  0mm
19:59 72.2 °F /  22.3 °C 59.4 °F /  15.2 °C 30.05in /  1017.5hPa Calm     64% 0.00in /  0mm
20:04 71.3 °F /  21.8 °C 58.9 °F /  14.9 °C 30.05in /  1017.5hPa Calm     65% 0.00in /  0mm
20:09 70.3 °F /  21.3 °C 59.3 °F /  15.2 °C 30.05in /  1017.5hPa Calm     68% 0.00in /  0mm
20:14 69.2 °F /  20.7 °C 58.6 °F /  14.8 °C 30.06in /  1017.8hPa Calm     69% 0.00in /  0mm
20:19 67.9 °F /  19.9 °C 56.6 °F /  13.7 °C 30.06in /  1017.8hPa Calm     67% 0.00in /  0mm
20:24 66.7 °F /  19.3 °C 55.8 °F /  13.2 °C 30.06in /  1017.8hPa Calm     68% 0.00in /  0mm
20:29 66.0 °F /  18.9 °C 55.5 °F /  13.1 °C 30.06in /  1017.8hPa Calm     69% 0.00in /  0mm
20:35 65.1 °F /  18.4 °C 55.5 °F /  13.1 °C 30.06in /  1017.8hPa Calm     71% 0.00in /  0mm
20:39 64.2 °F /  17.9 °C 55.0 °F /  12.8 °C 30.07in /  1018.2hPa Calm     72% 0.00in /  0mm
20:44 63.4 °F /  17.4 °C 55.0 °F /  12.8 °C 30.07in /  1018.2hPa Calm     74% 0.00in /  0mm
20:49 62.8 °F /  17.1 °C 55.1 °F /  12.8 °C 30.07in /  1018.2hPa Calm     76% 0.00in /  0mm
20:54 62.4 °F /  16.9 °C 55.1 °F /  12.8 °C 30.07in /  1018.2hPa Calm     77% 0.00in /  0mm
20:59 62.0 °F /  16.7 °C 54.7 °F /  12.6 °C 30.07in /  1018.2hPa Calm     77% 0.00in /  0mm
21:04 61.7 °F /  16.5 °C 54.4 °F /  12.4 °C 30.07in /  1018.2hPa Calm     77% 0.00in /  0mm
21:09 61.3 °F /  16.3 °C 54.0 °F /  12.2 °C 30.07in /  1018.2hPa Calm     77% 0.00in /  0mm
21:14 61.1 °F /  16.2 °C 54.2 °F /  12.3 °C 30.08in /  1018.5hPa Calm     78% 0.00in /  0mm
21:19 60.9 °F /  16.1 °C 54.3 °F /  12.4 °C 30.08in /  1018.5hPa Calm     79% 0.00in /  0mm
21:24 60.7 °F /  15.9 °C 54.5 °F /  12.5 °C 30.08in /  1018.5hPa Calm     80% 0.00in /  0mm
21:30 60.5 °F /  15.8 °C 54.6 °F /  12.6 °C 30.08in /  1018.5hPa Calm     81% 0.00in /  0mm
21:39 60.3 °F /  15.7 °C 55.1 °F /  12.8 °C 30.08in /  1018.5hPa Calm     83% 0.00in /  0mm
21:44 60.1 °F /  15.6 °C 54.9 °F /  12.7 °C 30.08in /  1018.5hPa Calm     83% 0.00in /  0mm
21:49 60.0 °F /  15.6 °C 55.2 °F /  12.9 °C 30.08in /  1018.5hPa Calm     84% 0.00in /  0mm
21:54 59.8 °F /  15.4 °C 55.0 °F /  12.8 °C 30.08in /  1018.5hPa Calm     84% 0.00in /  0mm
21:59 59.7 °F /  15.4 °C 54.5 °F /  12.5 °C 30.09in /  1018.8hPa Calm     83% 0.00in /  0mm
22:04 59.5 °F /  15.3 °C 54.7 °F /  12.6 °C 30.09in /  1018.8hPa Calm     84% 0.00in /  0mm
22:09 59.5 °F /  15.3 °C 54.7 °F /  12.6 °C 30.08in /  1018.5hPa Calm     84% 0.00in /  0mm
22:14 59.4 °F /  15.2 °C 54.9 °F /  12.7 °C 30.09in /  1018.8hPa Calm     85% 0.00in /  0mm
22:19 59.3 °F /  15.2 °C 54.8 °F /  12.7 °C 30.09in /  1018.8hPa Calm     85% 0.00in /  0mm
22:24 59.1 °F /  15.1 °C 54.6 °F /  12.6 °C 30.09in /  1018.8hPa Calm     85% 0.00in /  0mm
22:29 59.1 °F /  15.1 °C 54.9 °F /  12.7 °C 30.08in /  1018.5hPa Calm     86% 0.00in /  0mm
22:34 59.0 °F /  15 °C 54.8 °F /  12.7 °C 30.09in /  1018.8hPa Calm     86% 0.00in /  0mm
22:39 59.0 °F /  15 °C 54.8 °F /  12.7 °C 30.09in /  1018.8hPa Calm     86% 0.00in /  0mm
22:44 59.0 °F /  15 °C 55.1 °F /  12.8 °C 30.08in /  1018.5hPa Calm     87% 0.00in /  0mm
22:49 58.9 °F /  14.9 °C 55.0 °F /  12.8 °C 30.08in /  1018.5hPa Calm     87% 0.00in /  0mm
22:54 58.7 °F /  14.8 °C 54.5 °F /  12.5 °C 30.08in /  1018.5hPa Calm     86% 0.00in /  0mm
22:59 58.5 °F /  14.7 °C 54.3 °F /  12.4 °C 30.08in /  1018.5hPa Calm     86% 0.00in /  0mm
23:04 58.4 °F /  14.7 °C 54.2 °F /  12.3 °C 30.08in /  1018.5hPa Calm     86% 0.00in /  0mm
23:09 58.2 °F /  14.6 °C 53.7 °F /  12.1 °C 30.08in /  1018.5hPa Calm     85% 0.00in /  0mm
23:14 58.1 °F /  14.5 °C 53.6 °F /  12 °C 30.08in /  1018.5hPa Calm     85% 0.00in /  0mm
23:19 58.1 °F /  14.5 °C 53.6 °F /  12 °C 30.08in /  1018.5hPa Calm     85% 0.00in /  0mm
23:25 58.0 °F /  14.4 °C 53.5 °F /  11.9 °C 30.08in /  1018.5hPa Calm     85% 0.00in /  0mm
23:34 57.9 °F /  14.4 °C 53.4 °F /  11.9 °C 30.08in /  1018.5hPa Calm     85% 0.00in /  0mm
23:39 57.8 °F /  14.3 °C 53.3 °F /  11.8 °C 30.08in /  1018.5hPa Calm     85% 0.00in /  0mm
23:45 57.7 °F /  14.3 °C 53.5 °F /  11.9 °C 30.08in /  1018.5hPa Calm     86% 0.00in /  0mm
23:54 57.5 °F /  14.2 °C 53.3 °F /  11.8 °C 30.08in /  1018.5hPa Calm     86% 0.00in /  0mm
23:59 57.5 °F /  14.2 °C 53.7 °F /  12.1 °C 30.08in /  1018.5hPa Calm     87% 0.00in /  0mm
Westford Weather
Compliments of Weather Underground

 
 
Current Radar Loop:

Copyright © WestfordWeather.net 2007-2014. All rights reserved.